Time;durP1;ratioP1;P1;durP2;ratioP2;P2;SDS_P1;SDS_P2;PMS_P1;PMS_P2;Temp;Humidity;BMP_temperature;BMP_pressure;BME280_temperature;BME280_humidity;BME280_pressure;Samples;Min_cycle;Max_cycle;Signal;HPM_P1;HPM_P2
2021/08/22 00:00:10;;;;;;;6.20;4.00;;;23.00;72.70;;;;;;5048360;28;20099;-66
2021/08/22 00:03:19;;;;;;;7.53;4.35;;;23.00;73.80;;;;;;5049427;28;20044;-66
2021/08/22 00:06:22;;;;;;;10.45;4.47;;;22.90;74.70;;;;;;5049479;28;20044;-66
2021/08/22 00:09:26;;;;;;;6.10;4.30;;;22.90;75.50;;;;;;5049059;28;20044;-66
2021/08/22 00:12:30;;;;;;;7.85;4.72;;;22.90;76.70;;;;;;5049838;28;20040;-66
2021/08/22 00:15:34;;;;;;;9.60;5.03;;;22.80;78.10;;;;;;5049269;28;20123;-67
2021/08/22 00:18:38;;;;;;;7.57;4.60;;;22.80;80.00;;;;;;5049342;28;20048;-66
2021/08/22 00:21:42;;;;;;;12.68;4.85;;;22.70;80.40;;;;;;5049569;28;20498;-66
2021/08/22 00:24:47;;;;;;;6.28;4.13;;;22.70;79.90;;;;;;5049572;28;20046;-66
2021/08/22 00:27:52;;;;;;;6.97;4.60;;;22.70;79.80;;;;;;5049218;28;20052;-66
2021/08/22 00:30:56;;;;;;;11.07;4.22;;;22.70;79.60;;;;;;5052834;28;20044;-66
2021/08/22 00:34:00;;;;;;;8.73;4.60;;;22.60;79.50;;;;;;5053296;28;20044;-66
2021/08/22 00:37:05;;;;;;;6.43;4.47;;;22.50;80.10;;;;;;5053274;28;20210;-66
2021/08/22 00:40:11;;;;;;;9.93;6.50;;;22.50;80.30;;;;;;5052731;28;20407;-66
2021/08/22 00:43:15;;;;;;;17.05;8.95;;;22.40;81.10;;;;;;5053401;28;20083;-66
2021/08/22 00:46:19;;;;;;;16.75;9.38;;;22.40;81.30;;;;;;5053035;28;20060;-66
2021/08/22 00:49:25;;;;;;;15.90;9.40;;;22.30;81.80;;;;;;5052635;28;20051;-67
2021/08/22 00:52:32;;;;;;;14.25;8.35;;;22.30;82.00;;;;;;5052920;28;20415;-66
2021/08/22 00:55:36;;;;;;;13.32;7.20;;;22.20;82.50;;;;;;5052884;28;20067;-66
2021/08/22 00:58:42;;;;;;;12.38;7.80;;;22.10;84.80;;;;;;5052590;28;20048;-67
2021/08/22 01:01:50;;;;;;;16.73;8.25;;;22.10;86.60;;;;;;5052934;28;20110;-66
2021/08/22 01:05:13;;;;;;;14.70;8.50;;;22.00;88.60;;;;;;5052929;28;20482;-66
2021/08/22 01:08:25;;;;;;;13.95;8.07;;;22.00;90.20;;;;;;5052074;28;20056;-66
2021/08/22 01:11:34;;;;;;;13.63;6.70;;;22.10;90.80;;;;;;5052278;28;20052;-66
2021/08/22 01:14:45;;;;;;;14.77;5.63;;;22.10;91.00;;;;;;5052434;28;20044;-67
2021/08/22 01:17:52;;;;;;;8.48;4.95;;;22.00;91.50;;;;;;5042491;28;20056;-66
2021/08/22 01:21:32;;;;;;;9.10;5.25;;;22.10;92.40;;;;;;5032199;28;20044;-66
2021/08/22 01:24:39;;;;;;;13.07;4.78;;;22.00;92.40;;;;;;4992456;28;20568;-66
2021/08/22 01:27:45;;;;;;;6.75;4.60;;;22.10;91.40;;;;;;5031881;28;20048;-66
2021/08/22 01:30:50;;;;;;;7.53;4.43;;;22.10;90.40;;;;;;5032039;28;20419;-66
2021/08/22 01:33:56;;;;;;;14.05;5.03;;;22.00;88.70;;;;;;5032139;28;20053;-66
2021/08/22 01:37:01;;;;;;;6.93;4.20;;;22.00;87.40;;;;;;5032160;28;20527;-66
2021/08/22 01:40:07;;;;;;;7.15;5.03;;;21.90;87.70;;;;;;5031305;28;20045;-66
2021/08/22 01:43:12;;;;;;;10.35;4.63;;;21.90;89.70;;;;;;5031263;28;20052;-66
2021/08/22 01:46:20;;;;;;;6.68;4.47;;;21.80;90.60;;;;;;5031806;28;20400;-66
2021/08/22 01:49:25;;;;;;;6.80;4.45;;;21.70;91.10;;;;;;5031396;28;20504;-66
2021/08/22 01:52:34;;;;;;;11.98;4.75;;;21.70;91.40;;;;;;5031721;28;20057;-66
2021/08/22 01:55:39;;;;;;;8.90;5.13;;;21.60;92.10;;;;;;5031576;28;20048;-66
2021/08/22 01:58:43;;;;;;;8.65;4.97;;;21.60;92.30;;;;;;5031323;28;20044;-66
2021/08/22 02:01:49;;;;;;;9.60;5.65;;;21.50;92.70;;;;;;5031649;28;20384;-66
2021/08/22 02:05:01;;;;;;;12.32;4.78;;;21.50;93.30;;;;;;5031871;28;20040;-66
2021/08/22 02:08:11;;;;;;;14.57;5.38;;;21.50;93.80;;;;;;5030919;28;20052;-66
2021/08/22 02:11:23;;;;;;;8.75;4.80;;;21.50;94.00;;;;;;5031181;28;20029;-66
2021/08/22 02:14:28;;;;;;;;;;;21.40;94.10;;;;;;5032256;28;20040;-66
2021/08/22 02:17:58;;;;;;;9.98;4.63;;;21.40;94.50;;;;;;5049239;28;19932;-66
2021/08/22 02:21:03;;;;;;;10.77;4.75;;;21.40;94.90;;;;;;5051014;28;20056;-66
2021/08/22 02:24:08;;;;;;;11.10;4.68;;;21.40;95.60;;;;;;5050464;28;20502;-66
2021/08/22 02:27:12;;;;;;;9.82;5.22;;;21.30;95.90;;;;;;5050648;28;20051;-66
2021/08/22 02:30:16;;;;;;;11.40;4.95;;;21.30;96.40;;;;;;5050516;28;20060;-66
2021/08/22 02:33:21;;;;;;;9.70;5.25;;;21.30;96.90;;;;;;5051032;28;20040;-66
2021/08/22 02:36:27;;;;;;;8.48;5.15;;;21.20;97.60;;;;;;5050890;28;20052;-67
2021/08/22 02:39:31;;;;;;;10.95;5.35;;;21.30;98.50;;;;;;5050289;28;20068;-66
2021/08/22 02:42:35;;;;;;;10.27;5.28;;;21.20;99.40;;;;;;5050423;28;20039;-67
2021/08/22 02:45:40;;;;;;;9.05;5.20;;;21.20;99.90;;;;;;5050280;28;20095;-67
2021/08/22 02:48:44;;;;;;;9.55;5.00;;;21.20;99.90;;;;;;5050091;28;20044;-66
2021/08/22 02:51:48;;;;;;;10.18;5.07;;;21.20;99.90;;;;;;5047306;28;20052;-66
2021/08/22 02:54:52;;;;;;;8.15;4.90;;;21.20;99.90;;;;;;5048811;28;20047;-66
2021/08/22 02:57:56;;;;;;;9.63;5.00;;;21.20;99.90;;;;;;5049859;28;20490;-66
2021/08/22 03:01:00;;;;;;;8.20;5.38;;;21.00;99.90;;;;;;5050364;28;20407;-67
2021/08/22 03:04:04;;;;;;;10.85;5.40;;;20.80;99.90;;;;;;5050156;28;20052;-66
2021/08/22 03:07:08;;;;;;;14.48;6.00;;;20.70;99.90;;;;;;5050165;28;20067;-67
2021/08/22 03:10:13;;;;;;;8.27;5.10;;;20.60;99.90;;;;;;5050279;28;20052;-66
2021/08/22 03:13:18;;;;;;;7.95;5.10;;;20.60;99.90;;;;;;5049812;28;20116;-66
2021/08/22 03:16:22;;;;;;;10.50;5.57;;;20.40;99.90;;;;;;5050028;28;20040;-67
2021/08/22 03:19:26;;;;;;;7.78;5.30;;;20.30;99.90;;;;;;5049503;28;20051;-67
2021/08/22 03:22:31;;;;;;;15.15;5.22;;;20.20;99.90;;;;;;5049898;28;20052;-66
2021/08/22 03:25:35;;;;;;;9.90;6.05;;;20.00;99.90;;;;;;5050070;28;20072;-66
2021/08/22 03:28:39;;;;;;;9.45;6.20;;;19.90;99.90;;;;;;5029681;28;20040;-66
2021/08/22 03:31:43;;;;;;;11.82;6.30;;;19.80;99.90;;;;;;5029627;28;20048;-66
2021/08/22 03:34:49;;;;;;;9.40;5.68;;;19.80;99.90;;;;;;5030111;28;20060;-66
2021/08/22 03:37:52;;;;;;;16.42;5.20;;;19.80;99.90;;;;;;5029299;28;20499;-66
2021/08/22 03:40:58;;;;;;;11.20;6.18;;;19.70;99.90;;;;;;5029683;28;20044;-66
2021/08/22 03:44:04;;;;;;;10.13;5.65;;;19.70;99.90;;;;;;5029790;28;20052;-66
2021/08/22 03:47:08;;;;;;;9.10;5.05;;;19.80;99.90;;;;;;5029513;28;20511;-66
2021/08/22 03:50:12;;;;;;;12.95;6.05;;;19.70;99.90;;;;;;5029716;28;20396;-66
2021/08/22 03:53:16;;;;;;;10.07;5.60;;;19.60;99.90;;;;;;5029621;28;20032;-66
2021/08/22 03:56:20;;;;;;;9.85;5.20;;;19.60;99.90;;;;;;5029495;28;20048;-66
2021/08/22 03:59:24;;;;;;;8.85;5.45;;;19.60;99.90;;;;;;5029283;28;20052;-66
2021/08/22 04:02:28;;;;;;;8.30;5.15;;;19.50;99.90;;;;;;5048449;28;20048;-66
2021/08/22 04:05:52;;;;;;;8.95;5.50;;;19.50;99.90;;;;;;5053701;28;20051;-66
2021/08/22 04:08:58;;;;;;;9.15;4.75;;;19.60;99.90;;;;;;5052795;28;20048;-66
2021/08/22 04:12:04;;;;;;;9.30;5.00;;;19.70;99.90;;;;;;5053324;28;20040;-66
2021/08/22 04:15:09;;;;;;;9.18;5.10;;;19.80;99.90;;;;;;5053317;28;20044;-66
2021/08/22 04:18:13;;;;;;;10.77;5.15;;;19.80;99.90;;;;;;5053070;28;20048;-66
2021/08/22 04:21:18;;;;;;;12.75;5.25;;;19.80;99.90;;;;;;5053415;28;20039;-66
2021/08/22 04:24:22;;;;;;;10.70;5.28;;;19.80;99.90;;;;;;5053103;28;20052;-66
2021/08/22 04:27:26;;;;;;;8.57;5.03;;;19.80;99.90;;;;;;5053102;28;20052;-66
2021/08/22 04:30:30;;;;;;;10.35;5.20;;;19.70;99.90;;;;;;5052630;28;20218;-66
2021/08/22 04:33:35;;;;;;;8.38;4.95;;;19.70;99.90;;;;;;5052759;28;20502;-66
2021/08/22 04:36:40;;;;;;;7.50;5.07;;;19.60;99.90;;;;;;5051985;28;20439;-66
2021/08/22 04:39:44;;;;;;;13.43;5.00;;;19.60;99.90;;;;;;5045330;28;20056;-67
2021/08/22 04:42:50;;;;;;;8.43;5.47;;;19.50;99.90;;;;;;5033485;28;20053;-66
2021/08/22 04:45:55;;;;;;;10.85;5.32;;;19.50;99.90;;;;;;5040582;28;20045;-66
2021/08/22 04:48:59;;;;;;;10.23;5.32;;;19.60;99.90;;;;;;5048732;28;20044;-66
2021/08/22 04:52:03;;;;;;;9.48;5.60;;;19.70;99.90;;;;;;5051341;28;20498;-66
2021/08/22 04:55:08;;;;;;;16.88;6.38;;;19.90;99.90;;;;;;5040747;28;20047;-66
2021/08/22 04:58:12;;;;;;;9.75;5.43;;;20.00;99.90;;;;;;5052411;28;20052;-66
2021/08/22 05:01:16;;;;;;;8.18;4.78;;;20.10;99.90;;;;;;5052275;28;20048;-66
2021/08/22 05:04:20;;;;;;;16.67;6.20;;;20.30;99.90;;;;;;5051695;28;20306;-66
2021/08/22 05:07:24;;;;;;;11.35;6.50;;;20.10;99.90;;;;;;5052322;28;20239;-66
2021/08/22 05:10:28;;;;;;;9.07;6.50;;;19.80;99.90;;;;;;5052384;28;20044;-66
2021/08/22 05:13:37;;;;;;;10.40;6.43;;;19.70;99.90;;;;;;5052200;28;20040;-66
2021/08/22 05:16:41;;;;;;;8.68;6.20;;;19.60;99.90;;;;;;5052193;28;20040;-66
2021/08/22 05:19:45;;;;;;;14.65;7.07;;;19.60;99.90;;;;;;5052117;28;20052;-66
2021/08/22 05:22:50;;;;;;;18.10;6.38;;;19.80;99.90;;;;;;5052119;28;20056;-66
2021/08/22 05:25:54;;;;;;;15.75;5.05;;;21.40;99.90;;;;;;5052647;28;20048;-67
2021/08/22 05:28:58;;;;;;;12.80;5.07;;;23.60;99.90;;;;;;5031836;28;20044;-67
2021/08/22 05:32:04;;;;;;;12.40;4.97;;;25.40;99.90;;;;;;5032120;28;20113;-66
2021/08/22 05:35:10;;;;;;;13.73;5.82;;;26.80;97.80;;;;;;5032512;28;20040;-66
2021/08/22 05:38:14;;;;;;;14.52;5.43;;;28.00;95.20;;;;;;5031546;28;20048;-66
2021/08/22 05:41:19;;;;;;;15.07;5.65;;;28.50;93.40;;;;;;5032277;28;20052;-67
2021/08/22 05:44:23;;;;;;;11.60;5.07;;;28.90;92.40;;;;;;5031760;28;20048;-67
2021/08/22 05:47:29;;;;;;;12.18;5.30;;;29.90;90.80;;;;;;5032127;28;20044;-66
2021/08/22 05:50:33;;;;;;;8.90;5.05;;;30.10;89.90;;;;;;5031769;28;20064;-67
2021/08/22 05:53:41;;;;;;;9.63;5.03;;;27.00;91.60;;;;;;5031294;28;20048;-66
2021/08/22 05:56:46;;;;;;;9.23;5.32;;;26.80;93.20;;;;;;5031887;28;20400;-67
2021/08/22 05:59:49;;;;;;;7.03;4.82;;;27.20;93.20;;;;;;5031241;28;20036;-67
2021/08/22 06:02:54;;;;;;;8.82;5.35;;;27.80;92.60;;;;;;5031457;28;20052;-67
2021/08/22 06:05:58;;;;;;;10.45;5.32;;;27.30;92.80;;;;;;5031773;28;20048;-67
2021/08/22 06:09:03;;;;;;;16.67;6.20;;;27.60;92.40;;;;;;5031277;28;20052;-67
2021/08/22 06:12:07;;;;;;;9.93;5.30;;;28.00;91.80;;;;;;5031264;28;20507;-67
2021/08/22 06:15:11;;;;;;;7.70;5.35;;;27.20;92.50;;;;;;5031277;28;20040;-66
2021/08/22 06:18:17;;;;;;;8.43;5.28;;;26.90;93.00;;;;;;5031078;28;20095;-66
2021/08/22 06:21:21;;;;;;;8.77;4.82;;;26.20;93.60;;;;;;5031731;28;20048;-66
2021/08/22 06:24:27;;;;;;;11.10;5.20;;;26.40;94.20;;;;;;5030148;28;20053;-66
2021/08/22 06:27:31;;;;;;;10.63;4.80;;;26.50;93.90;;;;;;5031242;28;20041;-67
2021/08/22 06:30:35;;;;;;;10.63;5.22;;;27.00;93.40;;;;;;5031048;28;20044;-67
2021/08/22 06:33:39;;;;;;;6.25;4.70;;;27.70;92.50;;;;;;5031070;28;20380;-67
2021/08/22 06:36:43;;;;;;;10.93;5.47;;;27.70;92.30;;;;;;5031089;28;20432;-67
2021/08/22 06:39:48;;;;;;;7.00;5.05;;;28.90;91.40;;;;;;5030148;28;20052;-67
2021/08/22 06:42:52;;;;;;;11.18;4.75;;;29.20;90.60;;;;;;5030885;28;20043;-67
2021/08/22 06:45:57;;;;;;;6.22;4.25;;;29.20;90.00;;;;;;5030724;28;20513;-67
2021/08/22 06:49:01;;;;;;;7.70;5.10;;;30.20;89.30;;;;;;5030489;28;20045;-67
2021/08/22 06:52:05;;;;;;;7.03;4.60;;;30.60;87.30;;;;;;5030302;28;20049;-67
2021/08/22 06:55:10;;;;;;;9.52;4.95;;;30.80;85.20;;;;;;5030548;28;20048;-67
2021/08/22 06:58:14;;;;;;;10.27;4.82;;;29.80;86.80;;;;;;5030355;28;20048;-67
2021/08/22 07:01:19;;;;;;;7.82;4.78;;;29.10;88.70;;;;;;5037843;28;20048;-67
2021/08/22 07:04:26;;;;;;;6.32;4.38;;;29.80;88.10;;;;;;5050175;28;20507;-67
2021/08/22 07:07:30;;;;;;;7.63;4.13;;;30.50;87.80;;;;;;5050296;28;20403;-67
2021/08/22 07:10:34;;;;;;;11.18;4.38;;;32.30;84.30;;;;;;5049982;28;20040;-67
2021/08/22 07:13:38;;;;;;;8.55;4.55;;;32.90;82.20;;;;;;5050099;28;20040;-67
2021/08/22 07:16:44;;;;;;;6.90;4.22;;;33.20;80.70;;;;;;5049878;28;20503;-67
2021/08/22 07:19:50;;;;;;;9.20;4.15;;;31.60;82.30;;;;;;5049929;28;20048;-67
2021/08/22 07:22:53;;;;;;;8.20;3.97;;;32.20;82.40;;;;;;5050321;28;20411;-67
2021/08/22 07:25:57;;;;;;;5.57;3.95;;;32.10;81.70;;;;;;5049524;28;20605;-67
2021/08/22 07:29:03;;;;;;;7.43;4.20;;;32.70;81.20;;;;;;5050012;28;20055;-67
2021/08/22 07:32:07;;;;;;;5.80;3.95;;;33.40;80.10;;;;;;5049744;28;20040;-67
2021/08/22 07:35:12;;;;;;;8.27;4.55;;;34.10;78.70;;;;;;5049889;28;20044;-68
2021/08/22 07:38:16;;;;;;;5.88;4.00;;;32.30;80.00;;;;;;5049325;28;20047;-68
2021/08/22 07:41:20;;;;;;;6.75;3.90;;;32.80;82.30;;;;;;5049613;28;20048;-67
2021/08/22 07:44:24;;;;;;;5.05;4.22;;;34.70;78.00;;;;;;5049909;28;20261;-67
2021/08/22 07:47:28;;;;;;;4.90;3.53;;;35.50;76.60;;;;;;5049644;28;20526;-67
2021/08/22 07:50:32;;;;;;;7.85;4.03;;;36.70;74.60;;;;;;5049210;28;20043;-67
2021/08/22 07:53:36;;;;;;;8.50;3.70;;;35.60;73.30;;;;;;5050048;28;20040;-65
2021/08/22 07:56:42;;;;;;;10.48;4.05;;;36.90;72.80;;;;;;5049394;28;20052;-67
2021/08/22 07:59:46;;;;;;;5.57;3.33;;;38.40;69.70;;;;;;5049410;28;20040;-67
2021/08/22 08:02:51;;;;;;;4.85;3.47;;;39.60;67.60;;;;;;5028866;28;20049;-67
2021/08/22 08:05:55;;;;;;;6.20;3.60;;;40.40;65.70;;;;;;5029660;28;20045;-66
2021/08/22 08:09:00;;;;;;;5.18;3.50;;;40.70;64.70;;;;;;5029711;28;20049;-67
2021/08/22 08:12:06;;;;;;;5.07;3.13;;;41.60;63.00;;;;;;5029851;28;20052;-66
2021/08/22 08:15:11;;;;;;;7.90;3.35;;;42.10;62.20;;;;;;5030045;28;20041;-67
2021/08/22 08:18:15;;;;;;;6.93;3.70;;;42.10;60.90;;;;;;5029941;28;20053;-67
2021/08/22 08:21:19;;;;;;;6.78;3.50;;;42.40;61.10;;;;;;5029791;28;20056;-65
2021/08/22 08:24:24;;;;;;;4.95;3.40;;;43.10;60.00;;;;;;5029782;28;20040;-67
2021/08/22 08:27:29;;;;;;;7.07;3.38;;;40.90;60.40;;;;;;5029691;28;20068;-67
2021/08/22 08:30:34;;;;;;;6.72;3.35;;;41.20;60.80;;;;;;5029646;28;20044;-67
2021/08/22 08:33:38;;;;;;;5.85;3.67;;;40.60;61.10;;;;;;5029943;28;20045;-67
2021/08/22 08:36:43;;;;;;;8.15;3.60;;;41.20;59.60;;;;;;5029584;28;20041;-68
2021/08/22 08:39:47;;;;;;;6.50;3.00;;;41.90;59.00;;;;;;5029395;28;20048;-67
2021/08/22 08:42:53;;;;;;;4.72;3.22;;;43.10;57.60;;;;;;5029800;28;20051;-68
2021/08/22 08:46:16;;;;;;;6.95;3.45;;;43.00;58.00;;;;;;5029473;28;20040;-67
2021/08/22 08:49:40;;;;;;;9.70;3.22;;;44.20;56.80;;;;;;5029545;28;20048;-67
2021/08/22 08:53:02;;;;;;;9.32;3.33;;;43.80;56.50;;;;;;5032888;28;20048;-66
2021/08/22 08:56:10;;;;;;;5.32;3.22;;;44.50;55.50;;;;;;5032755;28;20207;-67
2021/08/22 08:59:14;;;;;;;5.78;3.30;;;45.00;55.30;;;;;;5032592;28;20044;-67
2021/08/22 09:02:19;;;;;;;6.35;3.05;;;45.70;54.30;;;;;;5048401;28;20043;-67
2021/08/22 09:05:26;;;;;;;8.93;3.85;;;45.60;53.90;;;;;;5052647;28;20040;-67
2021/08/22 09:09:04;;;;;;;7.28;3.50;;;45.40;52.30;;;;;;5052253;28;20047;-67
2021/08/22 09:12:39;;;;;;;5.45;3.40;;;44.20;52.30;;;;;;5052519;28;20036;-67
2021/08/22 09:16:22;;;;;;;7.47;3.17;;;45.10;51.90;;;;;;5052464;28;20403;-66
2021/08/22 09:20:04;;;;;;;5.28;3.50;;;44.60;51.70;;;;;;5052346;28;20051;-67
2021/08/22 09:23:49;;;;;;;8.05;3.55;;;45.60;52.20;;;;;;5052057;28;20400;-66
2021/08/22 09:27:24;;;;;;;5.68;3.20;;;46.80;51.80;;;;;;5052039;28;20044;-66
2021/08/22 09:31:14;;;;;;;5.88;3.60;;;45.50;51.40;;;;;;5052218;28;20048;-66
2021/08/22 09:34:21;;;;;;;5.57;3.33;;;43.80;54.10;;;;;;5052346;28;20077;-67
2021/08/22 09:37:28;;;;;;;7.07;3.47;;;45.80;52.90;;;;;;5052129;28;20056;-67
2021/08/22 09:40:36;;;;;;;6.65;3.10;;;46.40;52.10;;;;;;5052025;28;20056;-66
2021/08/22 09:44:18;;;;;;;8.43;3.75;;;46.20;51.70;;;;;;5052073;28;20052;-66
2021/08/22 09:47:46;;;;;;;6.28;3.20;;;44.40;52.90;;;;;;5051506;28;20040;-66
2021/08/22 09:51:27;;;;;;;10.20;3.20;;;41.80;55.90;;;;;;5051763;28;20040;-66
2021/08/22 09:55:09;;;;;;;7.25;3.10;;;44.70;54.10;;;;;;5051444;28;20044;-67
2021/08/22 09:58:31;;;;;;;6.03;2.92;;;47.50;51.70;;;;;;5051453;28;20574;-68
2021/08/22 10:01:59;;;;;;;4.28;3.05;;;49.40;50.90;;;;;;5051424;28;20396;-64
2021/08/22 10:05:09;;;;;;;5.93;3.08;;;49.90;50.20;;;;;;5051859;28;20044;-67
2021/08/22 10:08:16;;;;;;;6.90;2.92;;;49.10;49.80;;;;;;5050929;28;20044;-67
2021/08/22 10:11:28;;;;;;;6.53;3.55;;;49.10;48.70;;;;;;5050650;28;20057;-67
2021/08/22 10:14:36;;;;;;;4.68;3.10;;;49.40;48.10;;;;;;5051208;28;20048;-67
2021/08/22 10:17:45;;;;;;;6.57;3.33;;;49.00;48.40;;;;;;5050908;28;20044;-67
2021/08/22 10:20:50;;;;;;;4.50;3.72;;;46.40;48.80;;;;;;5051146;28;20048;-67
2021/08/22 10:23:56;;;;;;;8.95;3.50;;;46.30;50.20;;;;;;5050961;28;20051;-67
2021/08/22 10:27:01;;;;;;;4.35;3.15;;;46.90;50.20;;;;;;5050779;28;20056;-67
2021/08/22 10:30:05;;;;;;;4.18;2.70;;;48.20;49.30;;;;;;5050925;28;20052;-68
2021/08/22 10:33:11;;;;;;;5.25;2.70;;;49.30;47.80;;;;;;5050732;28;20044;-67
2021/08/22 10:36:29;;;;;;;6.32;3.10;;;49.70;47.70;;;;;;5051043;28;20032;-68
2021/08/22 10:39:33;;;;;;;6.97;3.75;;;49.40;47.60;;;;;;5049910;28;20052;-68
2021/08/22 10:42:38;;;;;;;4.32;2.80;;;49.20;47.90;;;;;;5050736;28;20522;-68
2021/08/22 10:45:47;;;;;;;5.70;2.80;;;49.20;46.60;;;;;;5050722;28;20061;-68
2021/08/22 10:48:53;;;;;;;9.98;3.28;;;48.80;47.90;;;;;;5050084;28;20043;-67
2021/08/22 10:52:33;;;;;;;4.97;2.50;;;49.60;47.20;;;;;;5051076;28;20113;-67
2021/08/22 10:55:38;;;;;;;4.72;2.88;;;47.10;47.90;;;;;;5050700;28;20040;-67
2021/08/22 10:58:58;;;;;;;6.80;3.40;;;47.00;48.50;;;;;;5050026;28;20064;-67
2021/08/22 11:02:10;;;;;;;5.07;3.15;;;46.10;49.20;;;;;;5050898;28;20040;-67
2021/08/22 11:05:16;;;;;;;4.20;2.80;;;45.90;48.50;;;;;;5050273;28;20046;-67
2021/08/22 11:08:26;;;;;;;5.18;2.88;;;47.30;48.50;;;;;;5050069;28;20086;-67
2021/08/22 11:11:30;;;;;;;4.07;2.92;;;48.30;48.10;;;;;;5050044;28;20103;-67
2021/08/22 11:14:34;;;;;;;7.90;3.13;;;48.50;47.80;;;;;;5049762;28;20040;-67
2021/08/22 11:17:48;;;;;;;3.33;2.75;;;49.30;47.60;;;;;;5050221;28;20119;-67
2021/08/22 11:20:53;;;;;;;7.25;3.20;;;48.40;47.70;;;;;;5050024;28;20040;-67
2021/08/22 11:24:01;;;;;;;3.75;2.40;;;49.60;46.90;;;;;;5050085;28;20048;-65
2021/08/22 11:27:04;;;;;;;4.67;2.40;;;50.50;46.00;;;;;;5050146;28;20040;-65
2021/08/22 11:30:11;;;;;;;4.97;2.38;;;50.50;46.00;;;;;;5049975;28;20044;-67
2021/08/22 11:33:16;;;;;;;6.75;2.95;;;49.90;45.70;;;;;;5050035;28;20048;-67
2021/08/22 11:36:26;;;;;;;5.38;2.85;;;48.70;45.90;;;;;;5049952;28;20052;-66
2021/08/22 11:39:35;;;;;;;5.35;2.50;;;43.40;47.60;;;;;;5049727;28;20056;-66
2021/08/22 11:43:03;;;;;;;6.13;3.22;;;43.40;48.40;;;;;;5050107;28;20542;-67
2021/08/22 11:46:15;;;;;;;6.88;3.35;;;40.00;52.00;;;;;;5048987;28;20051;-66
2021/08/22 11:49:21;;;;;;;4.15;3.03;;;38.50;52.50;;;;;;5049275;28;20075;-66
2021/08/22 11:52:25;;;;;;;4.97;3.20;;;40.30;52.50;;;;;;5049686;28;20052;-67
2021/08/22 11:55:32;;;;;;;5.53;3.38;;;41.90;51.00;;;;;;5049594;28;20073;-67
2021/08/22 11:58:36;;;;;;;6.47;3.00;;;43.10;49.90;;;;;;5049678;28;20051;-67
2021/08/22 12:01:41;;;;;;;8.48;3.35;;;43.20;49.90;;;;;;5049588;28;20518;-68
2021/08/22 12:05:08;;;;;;;6.07;2.92;;;45.60;49.10;;;;;;5049375;28;20056;-67
2021/08/22 12:08:12;;;;;;;5.57;3.50;;;47.20;48.10;;;;;;5049202;28;20525;-67
2021/08/22 12:11:21;;;;;;;5.07;3.08;;;48.50;46.80;;;;;;5049515;28;20491;-67
2021/08/22 12:14:30;;;;;;;;;;;46.40;46.80;;;;;;5050225;28;20388;-67
2021/08/22 12:17:34;;;;;;;6.03;3.10;;;43.20;47.10;;;;;;5049550;28;19935;-67
2021/08/22 12:20:40;;;;;;;10.73;3.55;;;43.30;47.80;;;;;;5048566;28;20128;-67
2021/08/22 12:23:47;;;;;;;8.75;3.22;;;41.50;48.40;;;;;;5049565;28;20040;-67
2021/08/22 12:26:55;;;;;;;6.07;3.40;;;39.80;50.50;;;;;;5053356;28;20049;-66
2021/08/22 12:30:11;;;;;;;5.82;3.22;;;38.70;51.20;;;;;;5051910;28;20055;-68
2021/08/22 12:33:34;;;;;;;4.97;2.88;;;40.30;51.20;;;;;;5053273;28;20032;-67
2021/08/22 12:36:41;;;;;;;8.93;3.28;;;40.50;50.70;;;;;;5052276;28;20052;-67
2021/08/22 12:39:59;;;;;;;8.27;3.55;;;40.80;52.30;;;;;;5052434;28;20044;-66
2021/08/22 12:43:03;;;;;;;6.28;3.40;;;42.40;52.50;;;;;;5053201;28;20527;-67
2021/08/22 12:46:07;;;;;;;9.52;3.55;;;43.40;52.20;;;;;;5052853;28;20044;-65
2021/08/22 12:49:11;;;;;;;17.90;4.15;;;43.20;51.40;;;;;;5052209;28;20052;-66
2021/08/22 12:52:16;;;;;;;8.02;3.65;;;41.10;54.60;;;;;;5052019;28;20040;-66
2021/08/22 12:55:21;;;;;;;5.03;3.55;;;41.40;54.30;;;;;;5052812;28;20048;-65
2021/08/22 12:58:25;;;;;;;9.30;4.25;;;40.50;54.70;;;;;;5052494;28;20048;-67
2021/08/22 13:01:30;;;;;;;9.43;3.60;;;41.60;54.70;;;;;;5052416;28;20055;-67
2021/08/22 13:04:35;;;;;;;5.43;3.42;;;42.30;54.00;;;;;;5052164;28;20534;-67
2021/08/22 13:07:42;;;;;;;6.15;3.15;;;42.90;53.40;;;;;;5052401;28;20048;-67
2021/08/22 13:10:46;;;;;;;6.82;3.42;;;40.90;54.20;;;;;;5052524;28;20044;-66
2021/08/22 13:13:55;;;;;;;8.38;3.65;;;41.30;54.70;;;;;;5052642;28;20403;-66
2021/08/22 13:16:59;;;;;;;13.18;3.55;;;41.50;54.30;;;;;;5051578;28;20044;-65
2021/08/22 13:20:05;;;;;;;5.68;3.83;;;41.00;54.30;;;;;;5051563;28;20052;-67
2021/08/22 13:23:10;;;;;;;7.30;3.47;;;40.80;55.30;;;;;;5052445;28;20052;-67
2021/08/22 13:26:15;;;;;;;9.13;3.60;;;40.30;56.50;;;;;;5051836;28;20056;-67
2021/08/22 13:29:20;;;;;;;9.05;4.10;;;40.30;56.00;;;;;;5051945;28;20060;-66
2021/08/22 13:32:26;;;;;;;8.88;4.38;;;38.90;57.80;;;;;;5052309;28;20043;-65
2021/08/22 13:35:30;;;;;;;8.00;4.63;;;36.60;60.80;;;;;;5051792;28;20044;-67
2021/08/22 13:38:34;;;;;;;6.85;4.00;;;37.70;60.10;;;;;;5051961;28;20040;-66
2021/08/22 13:41:40;;;;;;;9.05;4.15;;;38.00;60.10;;;;;;5052366;28;20052;-66
2021/08/22 13:44:45;;;;;;;6.38;4.20;;;38.40;60.00;;;;;;5052772;28;20052;-65
2021/08/22 13:47:49;;;;;;;7.70;4.65;;;39.20;58.90;;;;;;5051797;28;20048;-67
2021/08/22 13:50:56;;;;;;;7.57;3.90;;;38.90;59.50;;;;;;5051929;28;20043;-66
2021/08/22 13:54:01;;;;;;;5.32;4.03;;;38.50;59.80;;;;;;5051447;28;20055;-66
2021/08/22 13:57:07;;;;;;;7.85;4.43;;;38.30;60.00;;;;;;5051652;28;20044;-66
2021/08/22 14:00:12;;;;;;;6.05;4.15;;;38.60;60.00;;;;;;5050336;28;20044;-66
2021/08/22 14:03:20;;;;;;;7.68;4.72;;;38.80;60.50;;;;;;5031787;28;20491;-66
2021/08/22 14:06:24;;;;;;;9.80;4.22;;;38.80;60.10;;;;;;5031809;28;20037;-66
2021/08/22 14:09:28;;;;;;;11.23;4.97;;;38.60;60.00;;;;;;5030986;28;20044;-66
2021/08/22 14:12:37;;;;;;;7.05;4.88;;;38.20;60.60;;;;;;5031398;28;20048;-65
2021/08/22 14:15:42;;;;;;;8.57;4.80;;;36.70;62.30;;;;;;5030493;28;20504;-67
2021/08/22 14:18:46;;;;;;;9.98;4.25;;;36.00;64.00;;;;;;5030923;28;20052;-66
2021/08/22 14:21:55;;;;;;;10.52;4.95;;;36.20;65.00;;;;;;5031155;28;20090;-67
2021/08/22 14:25:00;;;;;;;7.00;4.47;;;36.50;63.80;;;;;;5031249;28;20400;-67
2021/08/22 14:28:05;;;;;;;6.95;4.35;;;36.10;64.10;;;;;;5030670;28;20052;-66
2021/08/22 14:31:10;;;;;;;7.78;4.28;;;36.60;63.50;;;;;;5030947;28;20044;-66
2021/08/22 14:34:16;;;;;;;6.82;4.32;;;36.90;63.40;;;;;;5030169;28;20097;-65
2021/08/22 14:37:22;;;;;;;7.35;4.03;;;35.50;64.30;;;;;;5030891;28;20495;-66
2021/08/22 14:40:26;;;;;;;6.95;4.13;;;35.50;64.40;;;;;;5030716;28;20045;-64
2021/08/22 14:43:31;;;;;;;8.52;4.55;;;35.60;64.70;;;;;;5030515;28;20048;-66
2021/08/22 14:46:35;;;;;;;9.18;4.32;;;35.50;64.80;;;;;;5030794;28;20048;-66
2021/08/22 14:49:39;;;;;;;12.18;4.82;;;35.80;64.40;;;;;;5029892;28;20503;-66
2021/08/22 14:52:44;;;;;;;10.90;4.72;;;35.70;65.00;;;;;;5029658;28;20048;-66
2021/08/22 14:55:48;;;;;;;7.13;4.00;;;35.80;65.40;;;;;;5030334;28;20056;-66
2021/08/22 14:58:53;;;;;;;8.55;4.57;;;35.60;65.60;;;;;;5030108;28;20044;-65
2021/08/22 15:01:58;;;;;;;11.02;4.05;;;32.90;69.70;;;;;;5043228;28;20048;-66
2021/08/22 15:05:03;;;;;;;11.98;4.20;;;33.60;69.50;;;;;;5050299;28;20044;-66
2021/08/22 15:08:08;;;;;;;8.95;4.13;;;34.00;69.10;;;;;;5050266;28;20502;-66
2021/08/22 15:11:13;;;;;;;7.00;4.57;;;34.50;68.20;;;;;;5049860;28;20048;-66
2021/08/22 15:14:18;;;;;;;6.55;4.20;;;34.80;67.70;;;;;;5050416;28;20494;-66
2021/08/22 15:17:24;;;;;;;10.25;4.93;;;34.70;67.60;;;;;;5050177;28;20040;-66
2021/08/22 15:20:30;;;;;;;8.07;4.70;;;34.50;68.00;;;;;;5050096;28;20044;-66
2021/08/22 15:23:35;;;;;;;8.13;4.40;;;34.30;69.10;;;;;;5050032;28;20070;-66
2021/08/22 15:26:40;;;;;;;10.60;4.35;;;34.20;69.10;;;;;;5050240;28;20517;-66
2021/08/22 15:29:44;;;;;;;7.78;4.40;;;34.00;69.70;;;;;;5048972;28;20040;-66
2021/08/22 15:32:49;;;;;;;9.60;4.68;;;34.20;69.90;;;;;;5049060;28;20040;-66
2021/08/22 15:35:54;;;;;;;8.02;5.03;;;33.40;70.10;;;;;;5049572;28;20407;-66
2021/08/22 15:39:00;;;;;;;7.80;4.55;;;33.70;71.00;;;;;;5049492;28;20036;-66
2021/08/22 15:42:05;;;;;;;9.30;4.82;;;33.20;71.90;;;;;;5049713;28;20067;-66
2021/08/22 15:45:10;;;;;;;6.95;4.25;;;33.40;72.00;;;;;;5048944;28;20048;-65
2021/08/22 15:48:15;;;;;;;9.68;4.97;;;33.30;72.10;;;;;;5049297;28;20047;-65
2021/08/22 15:51:21;;;;;;;10.52;4.80;;;33.20;72.30;;;;;;5049346;28;20048;-66
2021/08/22 15:54:25;;;;;;;10.52;4.50;;;33.20;72.70;;;;;;5050211;28;20498;-65
2021/08/22 15:57:31;;;;;;;7.30;4.00;;;32.40;72.90;;;;;;5049984;28;20380;-66
2021/08/22 16:00:37;;;;;;;8.80;4.70;;;32.00;74.50;;;;;;5052919;28;20044;-66
2021/08/22 16:03:41;;;;;;;7.43;4.20;;;32.20;73.90;;;;;;5053874;28;20044;-66
2021/08/22 16:06:50;;;;;;;13.07;4.20;;;32.10;73.60;;;;;;5053906;28;20044;-66
2021/08/22 16:09:56;;;;;;;7.97;4.07;;;32.20;73.00;;;;;;5053317;28;20294;-65
2021/08/22 16:13:01;;;;;;;10.90;4.68;;;32.10;72.70;;;;;;5053660;28;20060;-65